Time;durP1;ratioP1;P1;durP2;ratioP2;P2;SDS_P1;SDS_P2;PMS_P1;PMS_P2;Temp;Humidity;BMP_temperature;BMP_pressure;BME280_temperature;BME280_humidity;BME280_pressure;Samples;Min_cycle;Max_cycle;Signal;HPM_P1;HPM_P2
2022/06/23 00:00:32;;;;;;;9.33;5.43;;;;;;;;;;4940808;28;20446;-51
2022/06/23 00:02:58;;;;;;;8.70;5.70;;;;;;;;;;4912159;28;20454;-54
2022/06/23 00:05:25;;;;;;;9.23;6.10;;;;;;;;;;4941092;28;20453;-53
2022/06/23 00:07:53;;;;;;;8.33;5.87;;;;;;;;;;4918268;28;20944;-54
2022/06/23 00:10:19;;;;;;;9.47;6.13;;;;;;;;;;4939237;28;20435;-53
2022/06/23 00:12:45;;;;;;;9.87;6.23;;;;;;;;;;4919472;28;21024;-53
2022/06/23 00:15:30;;;;;;;11.47;5.90;;;;;;;;;;4941557;28;20533;-53
2022/06/23 00:17:57;;;;;;;7.30;6.17;;;;;;;;;;4925529;28;20458;-52
2022/06/23 00:20:24;;;;;;;12.93;8.13;;;;;;;;;;4943295;28;20948;-53
2022/06/23 00:22:52;;;;;;;12.17;7.70;;;;;;;;;;4898611;28;21149;-53
2022/06/23 00:25:37;;;;;;;9.20;7.30;;;;;;;;;;4946568;28;20435;-53
2022/06/23 00:28:03;;;;;;;8.57;6.93;;;;;;;;;;4921810;28;20435;-53
2022/06/23 00:30:30;;;;;;;8.50;6.57;;;;;;;;;;4941988;28;21032;-52
2022/06/23 00:32:56;;;;;;;7.53;6.83;;;;;;;;;;4919224;28;20455;-52
2022/06/23 00:35:22;;;;;;;11.67;7.60;;;;;;;;;;4950474;28;20446;-54
2022/06/23 00:37:49;;;;;;;9.30;7.60;;;;;;;;;;4944799;28;20482;-53
2022/06/23 00:40:15;;;;;;;10.17;8.53;;;;;;;;;;4941549;28;20561;-53
2022/06/23 00:42:50;;;;;;;13.20;7.63;;;;;;;;;;4943295;28;20734;-54
2022/06/23 00:45:20;;;;;;;14.70;8.63;;;;;;;;;;4944077;28;20525;-54
2022/06/23 00:47:48;;;;;;;13.83;7.77;;;;;;;;;;4922443;28;21242;-54
2022/06/23 00:50:20;;;;;;;7.93;6.53;;;;;;;;;;4938245;28;20560;-54
2022/06/23 00:52:48;;;;;;;11.90;7.67;;;;;;;;;;4941090;28;20447;-54
2022/06/23 00:55:16;;;;;;;13.03;6.93;;;;;;;;;;4936747;28;20473;-54
2022/06/23 00:57:43;;;;;;;16.77;7.73;;;;;;;;;;4904292;28;21175;-54
2022/06/23 01:00:15;;;;;;;8.33;7.50;;;;;;;;;;4943898;28;20462;-54
2022/06/23 01:02:56;;;;;;;12.50;7.43;;;;;;;;;;4937446;28;20442;-53
2022/06/23 01:05:33;;;;;;;11.73;6.57;;;;;;;;;;4938134;28;20459;-54
2022/06/23 01:08:04;;;;;;;8.40;6.43;;;;;;;;;;4911891;28;20474;-52
2022/06/23 01:10:34;;;;;;;8.90;6.30;;;;;;;;;;4940887;28;20454;-53
2022/06/23 01:13:00;;;;;;;12.80;6.73;;;;;;;;;;4947299;28;20891;-54
2022/06/23 01:15:42;;;;;;;8.20;6.20;;;;;;;;;;4941945;28;20461;-53
2022/06/23 01:18:22;;;;;;;12.07;6.13;;;;;;;;;;4921202;28;22795;-52
2022/06/23 01:20:50;;;;;;;7.87;6.30;;;;;;;;;;4945082;28;20473;-55
2022/06/23 01:23:52;;;;;;;6.10;5.40;;;;;;;;;;4923822;28;20519;-53
2022/06/23 01:26:28;;;;;;;7.73;6.07;;;;;;;;;;4942554;28;20814;-54
2022/06/23 01:29:01;;;;;;;9.23;6.40;;;;;;;;;;4916195;28;20450;-53
2022/06/23 01:31:36;;;;;;;9.83;5.33;;;;;;;;;;4928464;28;20481;-51
2022/06/23 01:34:09;;;;;;;8.70;5.50;;;;;;;;;;4937374;28;20493;-54
2022/06/23 01:36:37;;;;;;;12.63;4.93;;;;;;;;;;4938696;28;20489;-53
2022/06/23 01:39:05;;;;;;;12.43;6.10;;;;;;;;;;4920003;28;20478;-53
2022/06/23 01:41:31;;;;;;;7.83;5.27;;;;;;;;;;4941563;28;20454;-54
2022/06/23 01:44:21;;;;;;;10.27;5.30;;;;;;;;;;4934949;28;20517;-53
2022/06/23 01:46:50;;;;;;;7.90;4.83;;;;;;;;;;4931360;28;20442;-54
2022/06/23 01:49:26;;;;;;;7.37;4.73;;;;;;;;;;4892512;28;21795;-54
2022/06/23 01:51:53;;;;;;;10.67;5.20;;;;;;;;;;4942379;28;20434;-54
2022/06/23 01:54:25;;;;;;;5.30;4.50;;;;;;;;;;4925578;28;21210;-52
2022/06/23 01:56:53;;;;;;;8.80;4.80;;;;;;;;;;4942819;28;20586;-53
2022/06/23 01:59:27;;;;;;;4.53;4.13;;;;;;;;;;4899333;28;20450;-54
2022/06/23 02:02:04;;;;;;;8.40;5.17;;;;;;;;;;4940528;28;20501;-53
2022/06/23 02:04:56;;;;;;;10.43;5.63;;;;;;;;;;4918163;28;21121;-53
2022/06/23 02:07:24;;;;;;;13.90;4.93;;;;;;;;;;4943598;28;20442;-53
2022/06/23 02:09:51;;;;;;;13.70;5.53;;;;;;;;;;4916697;28;20451;-53
2022/06/23 02:12:18;;;;;;;9.00;4.77;;;;;;;;;;4944040;28;20597;-52
2022/06/23 02:15:04;;;;;;;9.87;5.90;;;;;;;;;;4922082;28;21073;-54
2022/06/23 02:17:36;;;;;;;7.10;4.60;;;;;;;;;;4945857;28;20792;-54
2022/06/23 02:20:04;;;;;;;9.20;6.50;;;;;;;;;;4931734;28;20454;-53
2022/06/23 02:22:32;;;;;;;15.30;6.93;;;;;;;;;;4940167;28;20472;-53
2022/06/23 02:25:04;;;;;;;15.43;5.53;;;;;;;;;;4939232;28;20442;-55
2022/06/23 02:27:38;;;;;;;9.30;5.50;;;;;;;;;;4946083;28;20442;-52
2022/06/23 02:30:27;;;;;;;7.37;4.73;;;;;;;;;;4895658;28;20455;-52
2022/06/23 02:33:05;;;;;;;8.77;5.50;;;;;;;;;;4933424;28;20479;-53
2022/06/23 02:35:34;;;;;;;8.10;5.97;;;;;;;;;;4927574;28;20464;-52
2022/06/23 02:38:09;;;;;;;13.10;7.70;;;;;;;;;;4946328;28;20538;-54
2022/06/23 02:40:42;;;;;;;8.50;5.83;;;;;;;;;;4919252;28;20521;-53
2022/06/23 02:43:17;;;;;;;6.30;5.53;;;;;;;;;;4945243;28;20446;-53
2022/06/23 02:45:46;;;;;;;7.80;4.93;;;;;;;;;;4921774;28;20469;-54
2022/06/23 02:48:22;;;;;;;9.07;5.73;;;;;;;;;;4946513;28;20951;-54
2022/06/23 02:51:02;;;;;;;7.07;5.23;;;;;;;;;;4941875;28;20812;-54
2022/06/23 02:53:46;;;;;;;9.00;5.40;;;;;;;;;;4947547;28;20486;-52
2022/06/23 02:56:19;;;;;;;8.40;5.90;;;;;;;;;;4924184;28;20507;-54
2022/06/23 02:59:11;;;;;;;6.30;5.00;;;;;;;;;;4949353;28;20443;-51
2022/06/23 03:01:37;;;;;;;6.83;5.53;;;;;;;;;;4880176;28;20445;-52
2022/06/23 03:04:12;;;;;;;10.43;5.60;;;;;;;;;;4944844;28;20442;-52
2022/06/23 03:06:40;;;;;;;8.00;5.63;;;;;;;;;;4925958;28;20556;-53
2022/06/23 03:09:08;;;;;;;7.23;4.77;;;;;;;;;;4946141;28;20474;-55
2022/06/23 03:11:55;;;;;;;8.23;5.53;;;;;;;;;;4944568;28;20469;-54
2022/06/23 03:14:27;;;;;;;6.10;4.90;;;;;;;;;;4920275;28;20458;-54
2022/06/23 03:16:54;;;;;;;11.37;4.93;;;;;;;;;;4944025;28;20522;-54
2022/06/23 03:19:22;;;;;;;9.30;5.90;;;;;;;;;;4907977;28;20872;-54
2022/06/23 03:21:49;;;;;;;8.97;5.60;;;;;;;;;;4947497;28;20965;-54
2022/06/23 03:24:24;;;;;;;8.13;5.40;;;;;;;;;;4927189;28;20533;-54
2022/06/23 03:26:51;;;;;;;9.60;6.00;;;;;;;;;;4947117;28;20667;-54
2022/06/23 03:29:37;;;;;;;10.97;5.73;;;;;;;;;;4907645;28;20462;-56
2022/06/23 03:32:08;;;;;;;11.47;5.60;;;;;;;;;;4926151;28;20529;-54
2022/06/23 03:34:44;;;;;;;7.50;5.40;;;;;;;;;;4919339;28;20469;-55
2022/06/23 03:37:33;;;;;;;9.53;5.17;;;;;;;;;;4941910;28;20481;-53
2022/06/23 03:42:55;;;;;;;18.90;5.73;;;;;;;;;;4938459;28;20465;-52
2022/06/23 03:45:39;;;;;;;9.73;5.50;;;;;;;;;;4911004;28;20573;-54
2022/06/23 03:48:11;;;;;;;6.50;4.90;;;;;;;;;;4939175;28;20533;-54
2022/06/23 03:50:38;;;;;;;11.10;5.30;;;;;;;;;;4923006;28;20561;-54
2022/06/23 03:53:28;;;;;;;9.77;6.00;;;;;;;;;;4949832;28;20490;-54
2022/06/23 03:56:07;;;;;;;15.57;5.40;;;;;;;;;;4911936;28;20564;-54
2022/06/23 03:58:50;;;;;;;11.87;5.10;;;;;;;;;;4940569;28;20526;-53
2022/06/23 04:01:24;;;;;;;9.93;4.70;;;;;;;;;;4936671;28;20514;-54
2022/06/23 04:03:54;;;;;;;8.70;5.57;;;;;;;;;;4944192;28;20439;-54
2022/06/23 04:06:35;;;;;;;9.70;5.00;;;;;;;;;;4911245;28;20486;-53
2022/06/23 04:09:12;;;;;;;6.33;4.40;;;;;;;;;;4945720;28;20443;-55
2022/06/23 04:11:57;;;;;;;10.20;5.50;;;;;;;;;;4931502;28;22274;-54
2022/06/23 04:14:32;;;;;;;8.20;5.10;;;;;;;;;;4941624;28;20469;-53
2022/06/23 04:17:06;;;;;;;6.20;4.70;;;;;;;;;;4946230;28;21018;-54
2022/06/23 04:19:45;;;;;;;12.97;5.80;;;;;;;;;;4929534;28;20548;-53
2022/06/23 04:22:18;;;;;;;9.17;5.80;;;;;;;;;;4942684;28;20457;-52
2022/06/23 04:24:45;;;;;;;9.40;5.40;;;;;;;;;;4938542;28;21370;-52
2022/06/23 04:27:18;;;;;;;14.77;5.80;;;;;;;;;;4945680;28;20573;-54
2022/06/23 04:29:55;;;;;;;10.63;5.60;;;;;;;;;;4930178;28;21225;-55
2022/06/23 04:32:24;;;;;;;11.23;6.83;;;;;;;;;;4937577;28;20535;-52
2022/06/23 04:35:09;;;;;;;8.00;5.70;;;;;;;;;;4925247;28;20451;-53
2022/06/23 04:38:05;;;;;;;8.60;6.73;;;;;;;;;;4942064;28;20561;-54
2022/06/23 04:40:42;;;;;;;10.57;6.83;;;;;;;;;;4925739;28;20454;-55
2022/06/23 04:43:41;;;;;;;10.93;6.00;;;;;;;;;;4949430;28;20435;-53
2022/06/23 04:46:09;;;;;;;10.43;6.70;;;;;;;;;;4933119;28;20993;-51
2022/06/23 04:48:47;;;;;;;10.70;6.37;;;;;;;;;;4918211;28;20424;-53
2022/06/23 04:51:16;;;;;;;13.70;7.10;;;;;;;;;;4941513;28;20445;-52
2022/06/23 04:54:05;;;;;;;10.40;7.10;;;;;;;;;;4932202;28;20435;-52
2022/06/23 04:56:41;;;;;;;7.70;6.87;;;;;;;;;;4959374;28;20537;-52
2022/06/23 04:59:19;;;;;;;15.03;6.93;;;;;;;;;;4920120;28;20445;-55
2022/06/23 05:01:46;;;;;;;14.70;6.67;;;;;;;;;;4957809;28;20442;-54
2022/06/23 05:04:17;;;;;;;11.60;6.60;;;;;;;;;;4925085;28;20445;-52
2022/06/23 05:06:44;;;;;;;13.60;6.50;;;;;;;;;;4946612;28;20451;-53
2022/06/23 05:09:30;;;;;;;6.53;5.83;;;;;;;;;;4918852;28;20541;-54
2022/06/23 05:12:00;;;;;;;9.73;6.23;;;;;;;;;;4956860;28;20435;-54
2022/06/23 05:14:29;;;;;;;11.13;6.50;;;;;;;;;;4936889;28;20708;-54
2022/06/23 05:17:01;;;;;;;16.17;7.10;;;;;;;;;;4940295;28;20497;-54
2022/06/23 05:19:34;;;;;;;7.67;6.60;;;;;;;;;;4916943;28;20443;-54
2022/06/23 05:22:01;;;;;;;9.57;6.13;;;;;;;;;;4918942;28;20459;-54
2022/06/23 05:24:32;;;;;;;11.90;6.77;;;;;;;;;;4944022;28;20541;-54
2022/06/23 05:27:08;;;;;;;10.23;6.90;;;;;;;;;;4932602;28;20470;-57
2022/06/23 05:29:59;;;;;;;12.87;7.03;;;;;;;;;;4929879;28;20430;-55
2022/06/23 05:32:31;;;;;;;9.37;6.40;;;;;;;;;;4924560;28;21288;-53
2022/06/23 05:35:06;;;;;;;10.73;6.90;;;;;;;;;;4943360;28;20427;-55
2022/06/23 05:37:35;;;;;;;11.60;6.63;;;;;;;;;;4918766;28;21233;-53
2022/06/23 05:40:19;;;;;;;11.63;6.40;;;;;;;;;;4932077;28;20485;-52
2022/06/23 05:42:49;;;;;;;15.20;6.93;;;;;;;;;;4916166;28;20557;-55
2022/06/23 05:45:29;;;;;;;12.23;7.63;;;;;;;;;;4946102;28;20492;-54
2022/06/23 05:48:03;;;;;;;9.13;6.07;;;;;;;;;;4918749;28;20459;-52
2022/06/23 05:50:56;;;;;;;10.87;8.43;;;;;;;;;;4895745;28;20454;-54
2022/06/23 05:53:27;;;;;;;17.73;8.10;;;;;;;;;;4930925;28;20546;-53
2022/06/23 05:56:12;;;;;;;11.83;7.37;;;;;;;;;;4933076;28;20499;-55
2022/06/23 05:58:46;;;;;;;9.53;7.20;;;;;;;;;;4946377;28;21265;-53
2022/06/23 06:01:15;;;;;;;12.10;7.27;;;;;;;;;;4919742;28;20455;-54
2022/06/23 06:03:43;;;;;;;10.57;7.23;;;;;;;;;;4962143;28;20443;-55
2022/06/23 06:06:10;;;;;;;12.40;7.30;;;;;;;;;;4930664;28;20443;-54
2022/06/23 06:09:35;;;;;;;13.83;8.37;;;;;;;;;;4944169;28;20810;-54
2022/06/23 06:11:24;;;;;;;13.07;7.63;;;;;;;;;;4943997;28;20462;-59
2022/06/23 06:13:50;;;;;;;13.23;6.67;;;;;;;;;;4949230;28;20442;-54
2022/06/23 06:16:16;;;;;;;12.00;7.83;;;;;;;;;;4917511;28;20518;-55
2022/06/23 06:18:43;;;;;;;10.73;7.07;;;;;;;;;;4950996;28;20463;-55
2022/06/23 06:21:10;;;;;;;12.80;7.60;;;;;;;;;;4923799;28;20455;-55
2022/06/23 06:23:56;;;;;;;13.87;7.93;;;;;;;;;;4943732;28;21173;-55
2022/06/23 06:26:26;;;;;;;9.20;7.03;;;;;;;;;;4935467;28;20465;-55
2022/06/23 06:28:58;;;;;;;10.73;7.67;;;;;;;;;;4933692;28;20769;-54
2022/06/23 06:31:38;;;;;;;15.87;8.00;;;;;;;;;;4933704;28;20462;-55
2022/06/23 06:34:17;;;;;;;16.57;9.30;;;;;;;;;;4949214;28;20438;-55
2022/06/23 06:36:44;;;;;;;8.07;6.67;;;;;;;;;;4926522;28;20572;-53
2022/06/23 06:39:22;;;;;;;8.70;5.40;;;;;;;;;;4924227;28;20439;-55
2022/06/23 06:41:49;;;;;;;10.93;6.53;;;;;;;;;;4946086;28;20482;-54
2022/06/23 06:44:21;;;;;;;7.57;5.77;;;;;;;;;;4942638;28;20514;-55
2022/06/23 06:46:47;;;;;;;9.30;5.57;;;;;;;;;;4947637;28;21977;-54
2022/06/23 06:49:17;;;;;;;9.93;5.30;;;;;;;;;;4901093;28;20453;-54
2022/06/23 06:51:43;;;;;;;10.70;4.97;;;;;;;;;;4923971;28;20473;-55
2022/06/23 06:54:14;;;;;;;10.20;5.20;;;;;;;;;;4941477;28;20443;-54
2022/06/23 06:56:42;;;;;;;11.57;3.77;;;;;;;;;;4933557;28;20490;-53
2022/06/23 06:59:14;;;;;;;7.63;4.10;;;;;;;;;;4942619;28;20944;-55
2022/06/23 07:01:41;;;;;;;10.20;3.90;;;;;;;;;;4922866;28;20451;-56
2022/06/23 07:04:09;;;;;;;10.27;4.60;;;;;;;;;;4941371;28;20463;-55
2022/06/23 07:06:44;;;;;;;8.90;4.07;;;;;;;;;;4943219;28;20443;-56
2022/06/23 07:09:16;;;;;;;10.10;4.50;;;;;;;;;;4918803;28;20442;-53
2022/06/23 07:11:53;;;;;;;8.40;4.57;;;;;;;;;;4945327;28;20590;-54
2022/06/23 07:14:37;;;;;;;8.40;4.80;;;;;;;;;;4941539;28;20431;-54
2022/06/23 07:17:08;;;;;;;7.77;4.80;;;;;;;;;;4946738;28;20474;-55
2022/06/23 07:19:35;;;;;;;8.93;5.07;;;;;;;;;;4922181;28;20439;-54
2022/06/23 07:22:18;;;;;;;10.87;4.67;;;;;;;;;;4941161;28;20435;-54
2022/06/23 07:24:49;;;;;;;11.70;6.53;;;;;;;;;;4923993;28;20551;-54
2022/06/23 07:27:26;;;;;;;12.67;4.93;;;;;;;;;;4931030;28;20458;-53
2022/06/23 07:30:11;;;;;;;13.23;5.20;;;;;;;;;;4869410;28;1629416;-53
2022/06/23 07:32:45;;;;;;;9.80;5.20;;;;;;;;;;4941527;28;20297;-56
2022/06/23 07:35:11;;;;;;;10.00;4.77;;;;;;;;;;4949047;28;20507;-54
2022/06/23 07:37:39;;;;;;;9.20;6.30;;;;;;;;;;4942812;28;20478;-55
2022/06/23 07:40:06;;;;;;;8.10;3.90;;;;;;;;;;4941937;28;20834;-55
2022/06/23 07:43:11;;;;;;;5.70;4.07;;;;;;;;;;4942425;28;20447;-53
2022/06/23 07:45:46;;;;;;;6.73;3.47;;;;;;;;;;4886570;29;20898;-55
2022/06/23 07:48:14;;;;;;;10.13;4.33;;;;;;;;;;4871450;29;20455;-54
2022/06/23 07:50:40;;;;;;;11.90;5.47;;;;;;;;;;4917081;28;20579;-54
2022/06/23 07:53:07;;;;;;;8.80;4.93;;;;;;;;;;4915793;28;24708;-54
2022/06/23 07:55:42;;;;;;;7.90;4.30;;;;;;;;;;4919854;28;20486;-54
2022/06/23 07:58:22;;;;;;;12.70;7.50;;;;;;;;;;4926881;28;20613;-55
2022/06/23 08:00:54;;;;;;;6.43;3.40;;;;;;;;;;4945831;28;20450;-54
2022/06/23 08:03:54;;;;;;;9.30;3.93;;;;;;;;;;4941943;28;20453;-55
2022/06/23 08:06:24;;;;;;;7.03;4.70;;;;;;;;;;4945344;28;20455;-54
2022/06/23 08:08:51;;;;;;;8.53;4.20;;;;;;;;;;4919577;28;20457;-54
2022/06/23 08:14:09;;;;;;;5.00;4.07;;;;;;;;;;4936799;28;20517;-55
2022/06/23 08:16:50;;;;;;;5.77;3.00;;;;;;;;;;4954794;28;20484;-53
2022/06/23 08:19:19;;;;;;;7.93;4.93;;;;;;;;;;4919338;28;20442;-53
2022/06/23 08:21:48;;;;;;;10.40;4.53;;;;;;;;;;4939296;28;20470;-54
2022/06/23 08:24:15;;;;;;;6.97;3.93;;;;;;;;;;4900726;28;20435;-55
2022/06/23 08:26:48;;;;;;;6.83;3.30;;;;;;;;;;4946239;28;20516;-57
2022/06/23 08:29:15;;;;;;;6.60;3.33;;;;;;;;;;4915000;28;20439;-55
2022/06/23 08:32:07;;;;;;;8.37;4.57;;;;;;;;;;4940844;28;20895;-55
2022/06/23 08:34:50;;;;;;;8.27;3.73;;;;;;;;;;4923793;28;20469;-55
2022/06/23 08:37:17;;;;;;;10.37;4.00;;;;;;;;;;4946963;28;20525;-54
2022/06/23 08:39:45;;;;;;;6.33;3.53;;;;;;;;;;4928205;28;20443;-54
2022/06/23 08:42:33;;;;;;;6.53;3.53;;;;;;;;;;4948571;28;20447;-54
2022/06/23 08:45:02;;;;;;;7.97;3.17;;;;;;;;;;4940781;28;20514;-53
2022/06/23 08:47:40;;;;;;;6.07;3.90;;;;;;;;;;4947915;28;20438;-55
2022/06/23 08:50:08;;;;;;;5.50;3.30;;;;;;;;;;4956305;28;20498;-54
2022/06/23 08:52:34;;;;;;;7.60;4.90;;;;;;;;;;4944737;28;20438;-54
2022/06/23 08:55:11;;;;;;;4.37;2.87;;;;;;;;;;4922518;28;21560;-54
2022/06/23 08:57:44;;;;;;;10.60;3.77;;;;;;;;;;4944994;28;20983;-55
2022/06/23 09:00:21;;;;;;;6.30;3.77;;;;;;;;;;4910788;28;20947;-55
2022/06/23 09:02:50;;;;;;;5.87;3.50;;;;;;;;;;4959301;28;20466;-53
2022/06/23 09:05:16;;;;;;;8.90;3.93;;;;;;;;;;4942263;28;20453;-55
2022/06/23 09:08:04;;;;;;;7.90;3.53;;;;;;;;;;4944768;28;20450;-55
2022/06/23 09:10:52;;;;;;;10.70;4.87;;;;;;;;;;4938344;28;21001;-55
2022/06/23 09:13:37;;;;;;;7.63;3.27;;;;;;;;;;4931188;28;20431;-55
2022/06/23 09:16:08;;;;;;;7.17;3.57;;;;;;;;;;4947439;28;20441;-55
2022/06/23 09:18:51;;;;;;;5.40;3.67;;;;;;;;;;4920705;28;20752;-54
2022/06/23 09:21:21;;;;;;;9.27;4.13;;;;;;;;;;4946812;28;20438;-55
2022/06/23 09:23:47;;;;;;;8.70;3.63;;;;;;;;;;4924933;28;20475;-55
2022/06/23 09:26:25;;;;;;;8.17;3.47;;;;;;;;;;4952411;28;20466;-55
2022/06/23 09:28:58;;;;;;;7.13;3.50;;;;;;;;;;4903057;28;20223;-53
2022/06/23 09:31:27;;;;;;;7.53;3.60;;;;;;;;;;4947756;28;20929;-55
2022/06/23 09:34:05;;;;;;;8.27;3.80;;;;;;;;;;4925164;28;20445;-54
2022/06/23 09:36:57;;;;;;;11.60;3.80;;;;;;;;;;4945095;28;20522;-55
2022/06/23 09:39:23;;;;;;;5.23;3.40;;;;;;;;;;4944156;28;20446;-55
2022/06/23 09:42:02;;;;;;;7.17;3.40;;;;;;;;;;4947953;28;20958;-53
2022/06/23 09:44:31;;;;;;;4.60;3.20;;;;;;;;;;4927679;28;20479;-56
2022/06/23 09:46:58;;;;;;;6.10;3.63;;;;;;;;;;4947082;28;20423;-60
2022/06/23 09:49:44;;;;;;;12.93;4.10;;;;;;;;;;4923383;28;20545;-55
2022/06/23 09:52:25;;;;;;;7.30;3.13;;;;;;;;;;4945752;28;20526;-55
2022/06/23 09:54:54;;;;;;;9.93;3.97;;;;;;;;;;4942719;28;20521;-54
2022/06/23 09:57:20;;;;;;;9.10;3.47;;;;;;;;;;4947482;28;20522;-54
2022/06/23 09:59:46;;;;;;;5.60;3.10;;;;;;;;;;4922814;28;20557;-55
2022/06/23 10:02:22;;;;;;;8.40;3.43;;;;;;;;;;4947059;28;20277;-54
2022/06/23 10:05:06;;;;;;;4.20;3.60;;;;;;;;;;4915146;28;20191;-53
2022/06/23 10:08:03;;;;;;;7.53;3.50;;;;;;;;;;4948234;28;20759;-55
2022/06/23 10:10:55;;;;;;;6.70;3.50;;;;;;;;;;4936966;28;20439;-54
2022/06/23 10:13:31;;;;;;;9.03;3.83;;;;;;;;;;4942815;28;21001;-56
2022/06/23 10:16:10;;;;;;;9.07;4.10;;;;;;;;;;4921808;28;20524;-55
2022/06/23 10:18:42;;;;;;;5.57;3.20;;;;;;;;;;4948085;28;20442;-55
2022/06/23 10:21:15;;;;;;;5.20;3.60;;;;;;;;;;4924985;28;20443;-60
2022/06/23 10:23:44;;;;;;;6.37;3.13;;;;;;;;;;4943334;28;20438;-55
2022/06/23 10:26:16;;;;;;;8.77;4.00;;;;;;;;;;4942189;28;20427;-54
2022/06/23 10:29:02;;;;;;;10.23;3.57;;;;;;;;;;4940282;28;20441;-55
2022/06/23 10:31:47;;;;;;;7.10;3.30;;;;;;;;;;4926939;28;20478;-55
2022/06/23 10:34:23;;;;;;;5.60;4.40;;;;;;;;;;4948637;28;20453;-54
2022/06/23 10:36:56;;;;;;;9.30;3.83;;;;;;;;;;4920573;28;20979;-56
2022/06/23 10:39:25;;;;;;;12.60;4.43;;;;;;;;;;4948246;28;20446;-55
2022/06/23 10:41:54;;;;;;;9.70;3.30;;;;;;;;;;4928424;28;20466;-54
2022/06/23 10:44:35;;;;;;;5.17;3.30;;;;;;;;;;4946777;28;20966;-53
2022/06/23 10:47:20;;;;;;;5.67;2.90;;;;;;;;;;4927519;28;20443;-54
2022/06/23 10:50:12;;;;;;;12.60;3.90;;;;;;;;;;4944168;28;20435;-55
2022/06/23 10:52:59;;;;;;;6.77;2.93;;;;;;;;;;4921743;28;20442;-55
2022/06/23 10:55:34;;;;;;;7.00;3.20;;;;;;;;;;4947730;28;20618;-55
2022/06/23 10:58:06;;;;;;;6.33;3.80;;;;;;;;;;4947499;28;20470;-56
2022/06/23 11:00:41;;;;;;;4.83;3.30;;;;;;;;;;4935921;28;20550;-56
2022/06/23 11:03:27;;;;;;;3.83;3.00;;;;;;;;;;4937821;28;20434;-55
2022/06/23 11:06:03;;;;;;;5.80;2.57;;;;;;;;;;4930353;28;20446;-63
2022/06/23 11:08:40;;;;;;;5.23;3.13;;;;;;;;;;4948721;28;20462;-55
2022/06/23 11:11:05;;;;;;;9.07;3.07;;;;;;;;;;4905631;28;20519;-55
2022/06/23 11:13:31;;;;;;;6.50;3.43;;;;;;;;;;4946165;28;20502;-55
2022/06/23 11:16:02;;;;;;;9.07;3.10;;;;;;;;;;4944563;28;20438;-54
2022/06/23 11:18:35;;;;;;;10.13;2.93;;;;;;;;;;4942448;28;20257;-55
2022/06/23 11:21:01;;;;;;;8.63;2.47;;;;;;;;;;4925987;28;20454;-56
2022/06/23 11:23:28;;;;;;;4.60;2.60;;;;;;;;;;4945143;28;20446;-55
2022/06/23 11:26:02;;;;;;;6.60;2.43;;;;;;;;;;4937874;28;20449;-55
2022/06/23 11:28:34;;;;;;;7.23;3.30;;;;;;;;;;4951586;28;20581;-55
2022/06/23 11:31:15;;;;;;;5.43;1.87;;;;;;;;;;4926202;28;20538;-55
2022/06/23 11:33:47;;;;;;;4.83;2.63;;;;;;;;;;4946718;28;20513;-56
2022/06/23 11:36:28;;;;;;;4.80;2.30;;;;;;;;;;4941524;28;20510;-55
2022/06/23 11:39:01;;;;;;;5.70;2.20;;;;;;;;;;4948697;28;20467;-55
2022/06/23 11:41:39;;;;;;;8.33;2.90;;;;;;;;;;4959253;28;20443;-60
2022/06/23 11:44:18;;;;;;;5.93;2.43;;;;;;;;;;4946283;28;20525;-56
2022/06/23 11:46:56;;;;;;;4.47;2.73;;;;;;;;;;4913511;28;20458;-56
2022/06/23 11:49:34;;;;;;;10.53;2.47;;;;;;;;;;4924908;28;20442;-56
2022/06/23 11:52:00;;;;;;;4.70;2.33;;;;;;;;;;4927657;28;20478;-55
2022/06/23 11:54:34;;;;;;;5.90;2.33;;;;;;;;;;4947327;28;20515;-56
2022/06/23 11:57:19;;;;;;;6.93;2.43;;;;;;;;;;4927717;28;20489;-56
2022/06/23 11:59:48;;;;;;;9.23;3.37;;;;;;;;;;4944689;28;20521;-56
2022/06/23 12:02:14;;;;;;;6.53;2.77;;;;;;;;;;4923863;28;20447;-56
2022/06/23 12:04:46;;;;;;;10.67;3.97;;;;;;;;;;4944735;28;20442;-58
2022/06/23 12:07:18;;;;;;;5.90;3.20;;;;;;;;;;4922931;28;20497;-55
2022/06/23 12:09:53;;;;;;;6.77;2.50;;;;;;;;;;4941015;28;20447;-54
2022/06/23 12:12:19;;;;;;;4.83;2.23;;;;;;;;;;4920188;28;20946;-56
2022/06/23 12:14:46;;;;;;;6.47;3.00;;;;;;;;;;4947096;28;20515;-55
2022/06/23 12:17:12;;;;;;;5.53;2.60;;;;;;;;;;4919000;28;20482;-55
2022/06/23 12:19:44;;;;;;;9.80;4.20;;;;;;;;;;4949753;28;20986;-57
2022/06/23 12:22:19;;;;;;;9.50;2.23;;;;;;;;;;4908797;28;20183;-56
2022/06/23 12:25:04;;;;;;;5.47;2.27;;;;;;;;;;4947801;28;20434;-56
2022/06/23 12:27:30;;;;;;;9.77;2.20;;;;;;;;;;4943403;28;21112;-56
2022/06/23 12:30:16;;;;;;;8.90;2.90;;;;;;;;;;4947001;28;20472;-56
2022/06/23 12:33:01;;;;;;;6.93;2.87;;;;;;;;;;4934026;28;20512;-56
2022/06/23 12:35:32;;;;;;;3.67;2.80;;;;;;;;;;4945854;28;20634;-55
2022/06/23 12:38:05;;;;;;;7.20;3.90;;;;;;;;;;4945081;28;20493;-55
2022/06/23 12:40:50;;;;;;;6.83;3.13;;;;;;;;;;4931884;28;20438;-56
2022/06/23 12:43:37;;;;;;;5.13;2.33;;;;;;;;;;4948576;28;20447;-57
2022/06/23 12:46:06;;;;;;;6.90;2.77;;;;;;;;;;4943822;28;20438;-56
2022/06/23 12:48:33;;;;;;;7.07;3.07;;;;;;;;;;4943103;28;20454;-55
2022/06/23 12:51:22;;;;;;;7.23;3.17;;;;;;;;;;4903402;28;20523;-54
2022/06/23 12:53:55;;;;;;;8.00;3.10;;;;;;;;;;4947328;28;20427;-55
2022/06/23 12:56:31;;;;;;;9.70;4.10;;;;;;;;;;4929785;28;20486;-55
2022/06/23 12:59:17;;;;;;;8.30;2.70;;;;;;;;;;4948188;28;20453;-55
2022/06/23 13:01:48;;;;;;;5.27;2.77;;;;;;;;;;4922272;28;20964;-55
2022/06/23 13:04:14;;;;;;;6.30;3.03;;;;;;;;;;4948449;28;20974;-56
2022/06/23 13:06:44;;;;;;;5.17;2.97;;;;;;;;;;4944401;28;20423;-57
2022/06/23 13:09:13;;;;;;;10.27;3.13;;;;;;;;;;4950908;28;20343;-56
2022/06/23 13:11:40;;;;;;;4.80;2.57;;;;;;;;;;4923672;28;20464;-57
2022/06/23 13:14:26;;;;;;;5.87;2.40;;;;;;;;;;4948371;28;20570;-56
2022/06/23 13:17:01;;;;;;;7.40;3.10;;;;;;;;;;4944927;28;20604;-56
2022/06/23 13:19:29;;;;;;;6.07;2.60;;;;;;;;;;4944725;28;20472;-55
2022/06/23 13:22:02;;;;;;;5.30;2.43;;;;;;;;;;4928090;28;20442;-54
2022/06/23 13:24:28;;;;;;;9.10;2.50;;;;;;;;;;4948094;28;20462;-55
2022/06/23 13:26:57;;;;;;;5.07;2.40;;;;;;;;;;4927866;28;20474;-56
2022/06/23 13:29:23;;;;;;;4.33;2.43;;;;;;;;;;4948034;28;20187;-55
2022/06/23 13:31:52;;;;;;;4.63;2.40;;;;;;;;;;4942785;28;20473;-55
2022/06/23 13:34:31;;;;;;;6.70;2.23;;;;;;;;;;4949055;28;20533;-56
2022/06/23 13:36:59;;;;;;;6.53;2.63;;;;;;;;;;4944041;28;20487;-55
2022/06/23 13:39:25;;;;;;;2.93;2.40;;;;;;;;;;4947334;28;20444;-54
2022/06/23 13:41:51;;;;;;;7.10;2.27;;;;;;;;;;4922163;28;20458;-55
2022/06/23 13:44:26;;;;;;;4.93;2.30;;;;;;;;;;4950223;28;20517;-58
2022/06/23 13:47:10;;;;;;;5.73;2.30;;;;;;;;;;4942458;28;20454;-60
2022/06/23 13:49:39;;;;;;;4.60;3.43;;;;;;;;;;4948614;28;21019;-60
2022/06/23 13:52:11;;;;;;;9.93;3.33;;;;;;;;;;4955761;28;20446;-57
2022/06/23 13:54:39;;;;;;;6.23;3.13;;;;;;;;;;4952738;28;20487;-58
2022/06/23 13:57:21;;;;;;;5.90;3.10;;;;;;;;;;4900588;28;20482;-59
2022/06/23 13:59:47;;;;;;;7.40;3.33;;;;;;;;;;4948176;28;20439;-57
2022/06/23 14:02:31;;;;;;;4.67;2.30;;;;;;;;;;4928773;28;20450;-59
2022/06/23 14:05:21;;;;;;;7.70;2.23;;;;;;;;;;4934790;28;20221;-60
2022/06/23 14:07:50;;;;;;;5.07;2.37;;;;;;;;;;4945749;28;20864;-60
2022/06/23 14:10:35;;;;;;;7.57;3.23;;;;;;;;;;4939380;28;20485;-58
2022/06/23 14:13:11;;;;;;;7.63;2.60;;;;;;;;;;4946964;28;20455;-59
2022/06/23 14:15:42;;;;;;;6.60;2.97;;;;;;;;;;4922082;28;20478;-60
2022/06/23 14:18:08;;;;;;;6.07;2.90;;;;;;;;;;4960971;28;20490;-59
2022/06/23 14:20:36;;;;;;;7.40;3.20;;;;;;;;;;4923614;28;20458;-58
2022/06/23 14:23:07;;;;;;;5.20;3.30;;;;;;;;;;4942468;28;20450;-58
2022/06/23 14:25:35;;;;;;;6.43;2.40;;;;;;;;;;4939952;28;20430;-59
2022/06/23 14:28:05;;;;;;;8.07;3.70;;;;;;;;;;4933302;29;20423;-59
2022/06/23 14:30:51;;;;;;;6.43;2.70;;;;;;;;;;4899796;28;20462;-58
2022/06/23 14:33:44;;;;;;;5.30;2.50;;;;;;;;;;4946405;28;20431;-58
2022/06/23 14:36:30;;;;;;;5.00;2.10;;;;;;;;;;4941242;28;20459;-57
2022/06/23 14:38:58;;;;;;;7.40;3.07;;;;;;;;;;4929052;28;20805;-58
2022/06/23 14:41:27;;;;;;;6.80;3.00;;;;;;;;;;4946084;28;20449;-58
2022/06/23 14:44:13;;;;;;;6.43;2.67;;;;;;;;;;4948333;28;20442;-58
2022/06/23 14:46:55;;;;;;;7.53;2.60;;;;;;;;;;4946657;28;20454;-57
2022/06/23 14:49:24;;;;;;;6.70;2.63;;;;;;;;;;4927913;28;20473;-57
2022/06/23 14:51:50;;;;;;;6.77;3.33;;;;;;;;;;4950970;28;20431;-58
2022/06/23 14:54:38;;;;;;;5.13;2.17;;;;;;;;;;4941964;28;20790;-58
2022/06/23 14:57:19;;;;;;;7.50;3.47;;;;;;;;;;4942519;28;20474;-57
2022/06/23 14:59:48;;;;;;;6.07;2.60;;;;;;;;;;4922608;28;20460;-58
2022/06/23 15:02:19;;;;;;;5.50;3.00;;;;;;;;;;4932812;28;20431;-56
2022/06/23 15:04:52;;;;;;;7.97;2.97;;;;;;;;;;4955617;28;20457;-57
2022/06/23 15:07:23;;;;;;;10.53;3.57;;;;;;;;;;4905474;28;20533;-57
2022/06/23 15:09:49;;;;;;;9.00;3.03;;;;;;;;;;4931785;28;20442;-58
2022/06/23 15:12:32;;;;;;;9.73;5.40;;;;;;;;;;4923729;28;20523;-57
2022/06/23 15:15:13;;;;;;;9.97;4.73;;;;;;;;;;4930379;28;20443;-57
2022/06/23 15:17:48;;;;;;;5.67;3.70;;;;;;;;;;4925186;28;20492;-58
2022/06/23 15:20:17;;;;;;;6.70;2.90;;;;;;;;;;4927877;28;20462;-58
2022/06/23 15:25:46;;;;;;;7.10;3.77;;;;;;;;;;4943470;28;21524;-58
2022/06/23 15:28:31;;;;;;;9.33;3.50;;;;;;;;;;4938395;28;20430;-57